createdAt,value
2023-03-16T02:44:40.579Z,93619.55
2023-03-16T02:49:47.894Z,93612.67
2023-03-16T02:54:54.666Z,93621.77
2023-03-16T03:00:01.953Z,93620.95
2023-03-16T03:05:10.311Z,93626.47
2023-03-16T03:10:17.322Z,93638.14
2023-03-16T03:15:24.465Z,93641.88
2023-03-16T03:20:31.736Z,93647.20
2023-03-16T03:25:38.861Z,93645.39
2023-03-16T03:30:45.820Z,93645.50
2023-03-16T03:36:02.677Z,93652.89
2023-03-16T03:41:10.651Z,93659.87
2023-03-16T03:46:17.653Z,93670.32
2023-03-16T03:51:24.839Z,93676.98
2023-03-16T03:56:31.828Z,93678.52
2023-03-16T04:01:38.707Z,93682.89
2023-03-16T04:06:45.420Z,93694.59
2023-03-16T04:11:52.268Z,93700.58
2023-03-16T04:16:59.247Z,93697.89
2023-03-16T04:22:07.066Z,93698.89
2023-03-16T04:27:13.867Z,93705.87
2023-03-16T04:32:20.937Z,93701.55
2023-03-16T04:37:27.694Z,93702.09
2023-03-16T04:42:34.738Z,93703.48
2023-03-16T04:47:41.955Z,93714.20
2023-03-16T04:52:49.111Z,93722.35
2023-03-16T04:57:55.824Z,93726.02
2023-03-16T05:03:03.053Z,93747.91
2023-03-16T05:08:11.538Z,93747.91
2023-03-16T05:13:18.385Z,93756.09
2023-03-16T05:18:26.119Z,93600.95
2023-03-16T05:23:33.173Z,93758.77
2023-03-16T05:28:40.546Z,93758.98
2023-03-16T05:33:48.862Z,93771.64
2023-03-16T05:38:56.039Z,93772.89
2023-03-16T05:44:02.868Z,93773.60
2023-03-16T05:49:10.574Z,93772.80
2023-03-16T05:54:17.652Z,93780.31
2023-03-16T05:59:24.656Z,93781.37
2023-03-16T06:04:31.852Z,93788.56
2023-03-16T06:09:38.839Z,93801.84
2023-03-16T06:14:46.299Z,93811.20
2023-03-16T06:19:53.269Z,93820.84
2023-03-16T06:25:00.125Z,93825.02
2023-03-16T06:30:09.969Z,93817.92
2023-03-16T06:35:17.074Z,93819.13
2023-03-16T06:40:23.829Z,93825.36
2023-03-16T06:45:30.889Z,93811.80
2023-03-16T06:50:38.155Z,93822.20
2023-03-16T06:55:45.456Z,93831.78
2023-03-16T07:00:53.814Z,93841.30
2023-03-16T07:06:00.748Z,93830.97
2023-03-16T07:11:07.689Z,93821.92
2023-03-16T07:16:14.997Z,93822.59
2023-03-16T07:21:22.418Z,93814.76
2023-03-16T07:26:29.539Z,93824.41
2023-03-16T07:31:37.254Z,93829.42
2023-03-16T07:36:44.202Z,93824.88
2023-03-16T07:41:51.726Z,93826.85
2023-03-16T07:46:58.936Z,93830.86
2023-03-16T07:52:05.814Z,93826.79
2023-03-16T07:57:12.889Z,93829.41
2023-03-16T08:02:22.154Z,93836.56
2023-03-16T08:07:28.972Z,93838.21
2023-03-16T08:12:36.415Z,93840.41
2023-03-16T08:17:43.330Z,93842.22
2023-03-16T08:22:50.080Z,93845.81
2023-03-16T08:27:58.413Z,93849.53
2023-03-16T08:33:05.995Z,93845.31
2023-03-16T08:38:15.031Z,93852.70
2023-03-16T08:43:22.229Z,93854.12
2023-03-16T08:48:29.696Z,93673.70
2023-03-16T08:53:37.440Z,93677.92
2023-03-16T08:58:46.478Z,93852.89
2023-03-16T09:03:53.562Z,93851.16
2023-03-16T09:09:00.445Z,93856.02
2023-03-16T09:14:07.418Z,93853.55
2023-03-16T09:19:14.295Z,93847.23
2023-03-16T09:24:21.463Z,93865.87
2023-03-16T09:29:28.232Z,93871.00
2023-03-16T09:34:35.535Z,93874.13
2023-03-16T09:39:42.347Z,93882.19
2023-03-16T09:45:15.925Z,93882.63
2023-03-16T09:50:35.270Z,93875.77
2023-03-16T09:55:40.981Z,93879.28
2023-03-16T10:01:01.196Z,93896.65
2023-03-16T10:06:11.352Z,93881.64
2023-03-16T10:11:34.597Z,93890.57
2023-03-16T10:17:01.144Z,93892.06
2023-03-16T10:22:25.903Z,93887.67
2023-03-16T10:27:42.430Z,93879.69
2023-03-16T10:32:49.807Z,93885.14
2023-03-16T10:37:57.650Z,93887.47
2023-03-16T10:43:14.621Z,93889.98
2023-03-16T10:48:23.718Z,93893.50
2023-03-16T10:53:36.806Z,93875.69
2023-03-16T10:58:46.498Z,93871.81
2023-03-16T11:03:56.254Z,93877.54
2023-03-16T11:09:10.315Z,93874.30
2023-03-16T11:14:21.554Z,93873.75
2023-03-16T11:19:37.984Z,93870.75
2023-03-16T11:25:07.824Z,93879.53
2023-03-16T11:30:40.308Z,93861.00
2023-03-16T11:36:00.332Z,93857.53
2023-03-16T11:41:15.809Z,93861.95
2023-03-16T11:46:42.284Z,93863.26
2023-03-16T11:51:57.000Z,93855.94
2023-03-16T11:57:10.956Z,93850.73
2023-03-16T12:02:45.653Z,93845.36
2023-03-16T12:08:09.476Z,93833.68
2023-03-16T12:13:38.927Z,93828.20
2023-03-16T12:18:56.350Z,93820.91
2023-03-16T12:24:14.164Z,93819.32
2023-03-16T12:29:46.993Z,93809.73
2023-03-16T12:34:58.906Z,93805.94
2023-03-16T12:40:40.012Z,93809.66
2023-03-16T12:45:57.079Z,93805.34
2023-03-16T12:51:07.098Z,93802.31
2023-03-16T12:56:20.474Z,93794.70
2023-03-16T13:01:34.990Z,93786.52
2023-03-16T13:06:50.796Z,93791.11
2023-03-16T13:11:58.103Z,93641.12
2023-03-16T13:17:21.686Z,93792.91
2023-03-16T13:22:32.709Z,93786.15
2023-03-16T13:27:41.772Z,93788.20
2023-03-16T13:32:49.994Z,93781.31
2023-03-16T13:38:08.774Z,93790.81
2023-03-16T13:43:18.011Z,93789.02
2023-03-16T13:48:25.787Z,93789.07
2023-03-16T13:53:34.101Z,93788.92
2023-03-16T13:58:42.596Z,93783.42
2023-03-16T14:03:52.027Z,93786.21
2023-03-16T14:09:03.552Z,93781.66
2023-03-16T14:14:32.680Z,93785.78
2023-03-16T14:19:44.957Z,93783.55
2023-03-16T14:24:59.538Z,93789.36
2023-03-16T14:30:20.727Z,93782.50
2023-03-16T14:35:46.000Z,93780.67
2023-03-16T14:41:05.582Z,93780.97
2023-03-16T14:46:16.366Z,93777.41
2023-03-16T14:51:23.266Z,93793.28
2023-03-16T14:56:36.085Z,93792.60
2023-03-16T15:01:43.231Z,93792.10
2023-03-16T15:06:50.418Z,93787.73
2023-03-16T15:11:58.583Z,93791.75
2023-03-16T15:17:05.618Z,93793.16
2023-03-16T15:22:14.731Z,93795.30
2023-03-16T15:27:25.102Z,93798.83
2023-03-16T15:32:33.917Z,93804.77
2023-03-16T15:37:42.072Z,93798.12
2023-03-16T15:42:49.118Z,93802.89
2023-03-16T15:47:56.877Z,93810.77
2023-03-16T15:53:29.486Z,93807.91
2023-03-16T15:58:28.969Z,93806.95
2023-03-16T16:03:36.003Z,93817.39
2023-03-16T16:08:43.023Z,93821.38
2023-03-16T16:13:50.738Z,93818.39
2023-03-16T16:18:59.052Z,93827.54
2023-03-16T16:24:06.747Z,93827.97
2023-03-16T16:29:23.819Z,93829.05
2023-03-16T16:34:31.420Z,93832.95
2023-03-16T16:39:38.695Z,93836.14
2023-03-16T16:44:46.282Z,93837.11
2023-03-16T16:49:53.296Z,93845.02
2023-03-16T16:55:00.517Z,93854.47
2023-03-16T17:00:21.021Z,93862.55
2023-03-16T17:05:31.898Z,93868.96
2023-03-16T17:10:40.091Z,93872.63
2023-03-16T17:15:47.025Z,93874.27
2023-03-16T17:20:54.525Z,93885.02
2023-03-16T17:26:25.846Z,93893.61
2023-03-16T17:31:37.018Z,93896.98
2023-03-16T17:36:43.995Z,93911.97
2023-03-16T17:42:00.113Z,93913.50
2023-03-16T17:47:13.642Z,93921.27
2023-03-16T17:52:23.853Z,93931.77
2023-03-16T17:57:35.637Z,93932.84
2023-03-16T18:02:56.089Z,93935.91
2023-03-16T18:08:29.342Z,93938.98
2023-03-16T18:13:39.481Z,93936.01
2023-03-16T18:18:47.015Z,93921.95
2023-03-16T18:23:55.308Z,93929.24
2023-03-16T18:29:02.053Z,93942.72
2023-03-16T18:34:11.197Z,93951.97
2023-03-16T18:39:21.918Z,93953.50
2023-03-16T18:44:30.125Z,93959.70
2023-03-16T18:49:39.169Z,93970.44
2023-03-16T18:54:47.304Z,93969.16
2023-03-16T18:59:54.965Z,93971.20
2023-03-16T19:05:06.289Z,93979.18
2023-03-16T19:10:26.625Z,93979.47
2023-03-16T19:15:36.181Z,93983.41
2023-03-16T19:20:47.834Z,93989.41
2023-03-16T19:25:56.906Z,93991.84
2023-03-16T19:31:22.828Z,93999.09
2023-03-16T19:36:34.661Z,94002.39
2023-03-16T19:41:42.366Z,94007.34
2023-03-16T19:46:50.107Z,93999.39
2023-03-16T19:51:58.361Z,94004.77
2023-03-16T19:57:10.530Z,94003.49
2023-03-16T20:02:28.124Z,94015.50
2023-03-16T20:07:38.456Z,94019.14
2023-03-16T20:12:45.636Z,94024.95
2023-03-16T20:17:53.138Z,94022.62
2023-03-16T20:23:00.121Z,94026.34
2023-03-16T20:28:10.095Z,94030.80
2023-03-16T20:33:24.195Z,94032.89
2023-03-16T20:38:31.275Z,94034.59
2023-03-16T20:43:39.195Z,94031.34
2023-03-16T20:48:47.458Z,94032.86
2023-03-16T20:53:54.630Z,94038.70
2023-03-16T20:59:01.500Z,94031.02
2023-03-16T21:04:11.438Z,94033.48
2023-03-16T21:09:19.458Z,94035.72
2023-03-16T21:14:27.532Z,94041.69
2023-03-16T21:19:34.761Z,94046.63
2023-03-16T21:24:41.543Z,94050.46
2023-03-16T21:29:48.702Z,94053.45
2023-03-16T21:34:56.870Z,94069.25
2023-03-16T21:40:05.145Z,94044.30
2023-03-16T21:45:13.197Z,94046.45
2023-03-16T21:50:26.082Z,94042.16
2023-03-16T21:55:34.096Z,94043.16
2023-03-16T22:00:41.127Z,94050.17
2023-03-16T22:05:48.582Z,94046.76
2023-03-16T22:10:55.746Z,94041.84
2023-03-16T22:16:04.011Z,94045.19
2023-03-16T22:21:38.060Z,94045.19
2023-03-16T22:26:45.108Z,94046.72
2023-03-16T22:31:56.750Z,94032.95
2023-03-16T22:37:05.947Z,94030.53
2023-03-16T22:42:29.618Z,94031.42
2023-03-16T22:47:37.350Z,94039.18
2023-03-16T22:52:45.801Z,94035.88
2023-03-16T22:57:57.292Z,94030.56
2023-03-16T23:03:04.737Z,94020.03
2023-03-16T23:08:18.997Z,94014.87
2023-03-16T23:13:27.720Z,94015.08
2023-03-16T23:18:35.295Z,94013.86
2023-03-16T23:23:46.184Z,94010.28
2023-03-16T23:28:53.193Z,94009.50
2023-03-16T23:34:00.281Z,94012.53
2023-03-16T23:39:07.671Z,93999.05
2023-03-16T23:44:22.045Z,94012.79
2023-03-16T23:49:33.308Z,94013.92
2023-03-16T23:54:40.035Z,94014.84
2023-03-16T23:59:46.896Z,94014.44
